Glade Spring, Virginia
Current Conditions -  °F | °C
As of 5:55 AM on Thursday 27 Nov 2014 (Local Time) from KVJI Reporting Station
Light Snow Light Snow  
Wind Chill: 34°   Ceiling: 400
Heat Index: 34°   Visibility: 1.5mi
Dew Point: 34°   Wind: 3mph
Humidity: 99%   Direction: 270°W
Pressure: 29.98"   Gusts: NA
Location:  36.79°N, 81.77°W
Report Text: KVJI 271055Z AUTO 27003KT 1 1/2SM -SN OVC004 01/01 A2998 RMK AO2 P0003 T00130012
Loading
Personal Weather Stations






























Interactive Weather Map New forecast layout! Learn more

10-Day Weather Forecast

Advertisements
Track Severe Weather on mobile